Latest Coastal Weather Observations for Mallacoota

IDV60701

Issued at 9:51 am EST Saturday 23 May 2015 (issued every 10 minutes, with the page automatically refreshed every 10 minutes)

About coastal observations | Map of coastal stations | Coastal observations for VIC | Marine services | Other Formats
Station Details ID: 084084 Name: MALLACOOTA Lat: -37.60 Lon: 149.73 Height: 22.0 m
Data from the previous 72 hours. | See also: Recent months at Mallacoota
Date/Time
EST
Temp

°C
Wind Pressure Rain
since 9am
mm
Weather Cloud Vis
km
Sea
Height
m
Swell
Dir
 
Speed
knots
Gust
knots
hPa Trend Height
m
Period
s
Dir
23/09:30am 11.0 W 7 12 1030.1 - 0.0 - - - - - - -
23/09:00am 10.7 W 9 17 1030.2 - 0.4 - - - - - - -
23/08:30am 10.4 W 10 16 1029.9 - 0.4 - - - - - - -
23/08:00am 9.9 W 8 17 1029.7 - 0.4 - - - - - - -
23/07:30am 9.4 WNW 8 15 1029.5 - 0.4 - - - - - - -
23/07:00am 9.1 WNW 8 15 1029.3 - 0.4 - - - - - - -
23/06:30am 9.0 W 7 13 1029.0 - 0.4 - - - - - - -
23/06:00am 9.2 W 8 13 1028.7 - 0.4 - - - - - - -
23/05:30am 9.2 W 8 15 1028.5 - 0.4 - - - - - - -
23/05:00am 9.1 W 9 14 1028.3 - 0.4 - - - - - - -
23/04:30am 9.3 W 8 15 1028.4 - 0.4 - - - - - - -
23/04:00am 9.8 W 9 15 1028.3 - 0.4 - - - - - - -
23/03:30am 10.0 W 7 12 1028.5 - 0.4 - - - - - - -
23/03:00am 10.1 W 8 13 1028.5 - 0.4 - - - - - - -
23/02:30am 10.7 W 8 12 1028.4 - 0.4 - - - - - - -
23/02:00am 11.0 W 7 11 1028.5 - 0.4 - - - - - - -
23/01:30am 10.9 WSW 6 10 1028.4 - 0.4 - - - - - - -
23/01:00am 11.0 W 8 13 1028.4 - 0.4 - - - - - - -
23/12:30am 10.7 W 7 11 1028.5 - 0.4 - - - - - - -
23/12:00am 10.5 W 7 13 1028.6 - 0.4 - - - - - - -
 
Date/Time
EST
Temp

°C
Wind Pressure Rain
since 9am
mm
Weather Cloud Vis
km
Sea
Height
m
Swell
Dir
 
Speed
knots
Gust
knots
hPa Trend Height
m
Period
s
Dir
22/11:30pm 10.4 W 7 13 1028.6 - 0.4 - - - - - - -
22/11:00pm 10.2 WNW 7 12 1028.4 - 0.4 - - - - - - -
22/10:30pm 10.3 WNW 6 9 1028.5 - 0.4 - - - - - - -
22/10:00pm 10.1 W 7 10 1028.6 - 0.4 - - - - - - -
22/09:30pm 10.2 WNW 6 9 1028.5 - 0.4 - - - - - - -
22/09:00pm 10.0 WNW 6 9 1028.7 - 0.4 - - - - - - -
22/08:30pm 9.9 WNW 6 8 1028.6 - 0.4 - - - - - - -
22/08:00pm 10.5 W 5 7 1028.4 - 0.4 - - - - - - -
22/07:30pm 10.7 W 5 7 1028.4 - 0.4 - - - - - - -
22/07:00pm 11.0 W 6 8 1028.2 - 0.4 - - - - - - -
22/06:30pm 10.8 W 5 7 1028.0 - 0.4 - - - - - - -
22/06:00pm 11.1 WSW 5 9 1027.9 - 0.4 - - - - - - -
22/05:30pm 11.3 WSW 6 10 1027.5 - 0.4 - - - - - - -
22/05:00pm 11.3 WSW 6 11 1027.3 - 0.4 - - - - - - -
22/04:30pm 11.4 SW 7 12 1027.1 - 0.4 - - - - - - -
22/04:00pm 11.2 SW 10 15 1026.9 - 0.4 - - - - - - -
22/03:30pm 12.1 SSW 13 20 1026.7 - 0.0 - - - - - - -
22/03:00pm 12.9 SW 10 16 1026.2 - 0.0 - - - - - - -
22/02:30pm 12.6 SW 10 16 1025.9 - 0.0 - - - - - - -
22/02:00pm 13.0 SW 10 16 1025.7 - 0.0 - - - - - - -
22/01:30pm 12.6 SSW 11 18 1025.8 - 0.0 - - - - - - -
22/01:04pm 13.1 SSW 15 25 1025.7 - 0.0 - - - - - - -
22/01:00pm 13.8 SSW 13 21 1025.7 - 0.0 - - - - - - -
22/12:30pm 14.4 S 13 19 1025.7 - 0.0 - - - - - - -
22/12:00pm 13.8 S 14 18 1026.1 - 0.0 - - - - - - -
22/11:30am 13.7 S 12 22 1026.2 - 0.0 - - - - - - -
22/11:00am 14.8 SSW 10 13 1026.5 - 0.0 - - - - - - -
22/10:30am 13.2 SSW 12 23 1026.6 - 0.0 - - - - - - -
22/10:00am 14.1 SSW 12 21 1026.1 - 0.0 - - - - - - -
22/09:30am 14.1 S 10 18 1025.8 - 0.0 - - - - - - -
22/09:00am 14.2 S 14 24 1025.8 - 5.0 - - - - - - -
22/08:30am 14.4 SSW 11 19 1025.5 - 5.0 - - - - - - -
22/08:00am 14.1 SSW 12 17 1025.2 - 5.0 - - - - - - -
22/07:30am 14.2 S 14 21 1024.9 - 5.0 - - - - - - -
22/07:04am 13.1 S 19 29 1024.8 - 5.0 - - - - - - -
22/07:00am 13.4 S 21 29 1024.6 - 5.0 - - - - - - -
22/06:41am 14.4 S 15 25 1024.0 - 5.0 - - - - - - -
22/06:30am 13.5 S 15 23 1024.0 - 5.0 - - - - - - -
22/06:02am 14.1 S 15 25 1023.6 - 5.0 - - - - - - -
22/06:00am 14.1 S 13 25 1023.7 - 5.0 - - - - - - -
22/05:30am 14.4 SSW 12 16 1023.2 - 5.0 - - - - - - -
22/05:00am 14.4 S 13 20 1023.2 - 5.0 - - - - - - -
22/04:30am 14.4 S 14 22 1023.1 - 5.0 - - - - - - -
22/04:00am 14.5 S 11 17 1023.0 - 5.0 - - - - - - -
22/03:30am 14.6 S 16 24 1023.0 - 5.0 - - - - - - -
22/03:00am 14.9 SSW 9 17 1023.1 - 5.0 - - - - - - -
22/02:30am 15.0 S 11 21 1022.9 - 5.0 - - - - - - -
22/02:00am 14.8 WNW 6 11 1022.9 - 5.0 - - - - - - -
22/01:30am 14.5 S 7 14 1022.8 - 5.0 - - - - - - -
22/01:00am 14.4 SE 10 20 1022.9 - 5.0 - - - - - - -
22/12:30am 14.3 S 7 13 1022.8 - 5.0 - - - - - - -
22/12:00am 14.0 S 9 14 1022.8 - 5.0 - - - - - - -
 
Date/Time
EST
Temp

°C
Wind Pressure Rain
since 9am
mm
Weather Cloud Vis
km
Sea
Height
m
Swell
Dir
 
Speed
knots
Gust
knots
hPa Trend Height
m
Period
s
Dir
21/11:30pm 13.8 SE 12 19 1022.7 - 5.0 - - - - - - -
21/11:00pm 14.3 SE 10 18 1022.5 - 3.8 - - - - - - -
21/10:30pm 14.4 SSE 9 19 1022.5 - 3.8 - - - - - - -
21/10:00pm 14.7 ESE 6 13 1022.6 - 3.8 - - - - - - -
21/09:30pm 15.0 S 8 15 1022.6 - 3.8 - - - - - - -
21/09:00pm 15.0 S 10 14 1022.5 - 3.8 - - - - - - -
21/08:30pm 15.2 E 6 11 1022.2 - 3.8 - - - - - - -
21/08:00pm 15.2 ESE 8 15 1021.9 - 3.8 - - - - - - -
21/07:30pm 15.1 SE 7 13 1021.8 - 3.8 - - - - - - -
21/07:00pm 14.9 ESE 8 17 1021.6 - 3.8 - - - - - - -
21/06:30pm 14.4 ESE 7 15 1021.4 - 3.8 - - - - - - -
21/06:00pm 12.6 W 7 13 1021.4 - 3.4 - - - - - - -
21/05:30pm 12.9 WSW 6 8 1021.2 - 0.8 - - - - - - -
21/05:00pm 13.3 WSW 7 14 1020.9 - 0.0 - - - - - - -
21/04:30pm 13.5 WSW 7 12 1020.6 - 0.0 - - - - - - -
21/04:00pm 13.8 WSW 6 11 1020.3 - 0.0 - - - - - - -
21/03:30pm 14.2 SW 8 13 1020.3 - 0.0 - - - - - - -
21/03:00pm 14.9 SW 7 10 1020.1 - 0.0 - - - - - - -
21/02:30pm 15.8 SW 6 11 1019.9 - 0.0 - - - - - - -
21/02:00pm 16.2 SW 6 11 1019.9 - 0.0 - - - - - - -
21/01:30pm 15.6 SSW 5 8 1020.0 - 0.0 - - - - - - -
21/01:00pm 15.7 W 5 8 1020.0 - 0.0 - - - - - - -
21/12:30pm 15.4 WSW 7 12 1020.3 - 0.0 - - - - - - -
21/12:00pm 15.5 WSW 8 13 1020.5 - 0.0 - - - - - - -
21/11:30am 15.8 WSW 8 14 1020.7 - 0.0 - - - - - - -
21/11:00am 15.3 W 8 13 1020.7 - 0.0 - - - - - - -
21/10:30am 14.7 W 8 12 1020.6 - 0.0 - - - - - - -
21/10:00am 14.8 WSW 8 13 1020.5 - 0.0 - - - - - - -
21/09:30am 13.8 W 7 11 1020.4 - 0.0 - - - - - - -
21/09:00am 14.0 W 8 12 1020.2 - 0.0 - - - - - - -
21/08:30am 12.4 W 6 11 1020.0 - 0.0 - - - - - - -
21/08:00am 11.2 WNW 7 10 1019.5 - 0.0 - - - - - - -
21/07:30am 10.8 WNW 6 9 1019.1 - 0.0 - - - - - - -
21/07:00am 10.9 WNW 6 9 1018.7 - 0.0 - - - - - - -
21/06:30am 10.7 WNW 6 8 1018.3 - 0.0 - - - - - - -
21/06:00am 10.7 WNW 7 8 1017.9 - 0.0 - - - - - - -
21/05:30am 10.8 WNW 7 8 1017.6 - 0.0 - - - - - - -
21/05:00am 10.8 WNW 7 8 1017.3 - 0.0 - - - - - - -
21/04:30am 11.1 WNW 6 8 1017.0 - 0.0 - - - - - - -
21/04:00am 11.2 WNW 6 8 1016.8 - 0.0 - - - - - - -
21/03:30am 11.0 WNW 6 9 1016.7 - 0.0 - - - - - - -
21/03:00am 11.0 WNW 5 8 1016.7 - 0.0 - - - - - - -
21/02:30am 10.9 W 5 7 1016.6 - 0.0 - - - - - - -
21/02:00am 10.9 W 4 6 1016.4 - 0.0 - - - - - - -
21/01:30am 10.9 WNW 5 7 1016.3 - 0.0 - - - - - - -
21/01:00am 11.2 WNW 5 7 1016.2 - 0.0 - - - - - - -
21/12:30am 11.2 WNW 5 7 1016.0 - 0.0 - - - - - - -
21/12:00am 11.3 WNW 5 6 1015.9 - 0.0 - - - - - - -
 
Date/Time
EST
Temp

°C
Wind Pressure Rain
since 9am
mm
Weather Cloud Vis
km
Sea
Height
m
Swell
Dir
 
Speed
knots
Gust
knots
hPa Trend Height
m
Period
s
Dir
20/11:30pm 11.3 WNW 5 6 1015.7 - 0.0 - - - - - - -
20/11:00pm 11.8 WNW 5 6 1015.6 - 0.0 - - - - - - -
20/10:30pm 12.0 WNW 4 6 1015.5 - 0.0 - - - - - - -
20/10:00pm 12.6 NW 5 6 1015.6 - 0.0 - - - - - - -
20/09:30pm 13.7 W 5 8 1015.3 - 0.0 - - - - - - -
20/09:00pm 13.6 W 5 6 1015.1 - 0.0 - - - - - - -
20/08:30pm 12.9 CALM 0 3 1014.7 - 0.0 - - - - - - -
20/08:00pm 13.7 WSW 3 5 1014.2 - 0.0 - - - - - - -
20/07:30pm 14.4 WNW 5 7 1013.7 - 0.0 - - - - - - -
20/07:00pm 14.7 WNW 5 6 1013.3 - 0.0 - - - - - - -
20/06:30pm 14.3 NW 4 5 1013.0 - 0.0 - - - - - - -
20/06:00pm 15.7 WNW 5 7 1012.8 - 0.0 - - - - - - -
20/05:30pm 16.6 W 5 6 1012.3 - 0.0 - - - - - - -
20/05:00pm 17.0 NNW 4 7 1011.7 - 0.0 - - - - - - -
20/04:30pm 17.4 NW 4 6 1011.7 - 0.0 - - - - - - -
20/04:00pm 18.3 SW 4 5 1011.4 - 0.0 - - - - - - -
20/03:30pm 19.2 NW 2 4 1011.0 - 0.0 - - - - - - -
20/03:00pm 19.3 NNW 4 8 1010.7 - 0.0 - - - - - - -
20/02:30pm 19.5 N 5 7 1010.5 - 0.0 - - - - - - -
20/02:00pm 20.8 N 6 8 1010.5 - 0.0 - - - - - - -
20/01:30pm 21.1 N 5 8 1010.7 - 0.0 - - - - - - -
20/01:00pm 20.7 N 7 9 1011.0 - 0.0 - - - - - - -
20/12:30pm 20.1 NNW 5 8 1011.2 - 0.0 - - - - - - -
20/12:00pm 18.4 N 5 7 1011.2 - 0.0 - - - - - - -
20/11:30am 16.9 NNW 4 6 1011.4 - 0.0 - - - - - - -
20/11:00am 15.2 CALM 0 0 1011.9 - 0.0 - - - - - - -
20/10:30am 15.2 NW 1 3 1012.0 - 0.0 - - - - - - -
20/10:00am 14.5 NW 3 6 1011.8 - 0.0 - - - - - - -

Other Formats:

Comma delimited format used in spreadsheet applications
http://www.bom.gov.au/fwo/IDV60701/IDV60701.94935.axf

JavaScript Object Notation format (JSON) in row-major order
http://www.bom.gov.au/fwo/IDV60701/IDV60701.94935.json